Map

Track Data

SID SEASON NUMBER BASIN SUBBASIN NAME ISO_TIME NATURE LAT LON WMO_WIND WMO_PRES WMO_AGENCY TRACK_TYPE DIST2LAND LANDFALL IFLAG USA_AGENCY USA_ATCF_ID USA_LAT USA_LON USA_RECORD USA_STATUS USA_WIND USA_PRES USA_SSHS USA_R34_NE USA_R34_SE USA_R34_SW USA_R34_NW USA_R50_NE USA_R50_SE USA_R50_SW USA_R50_NW USA_R64_NE USA_R64_SE USA_R64_SW USA_R64_NW USA_POCI USA_ROCI USA_RMW USA_EYE TOKYO_LAT TOKYO_LON TOKYO_GRADE TOKYO_WIND TOKYO_PRES TOKYO_R50_DIR TOKYO_R50_LONG TOKYO_R50_SHORT TOKYO_R30_DIR TOKYO_R30_LONG TOKYO_R30_SHORT TOKYO_LAND CMA_LAT CMA_LON CMA_CAT CMA_WIND CMA_PRES HKO_LAT HKO_LON HKO_CAT HKO_WIND HKO_PRES NEWDELHI_LAT NEWDELHI_LON NEWDELHI_GRADE NEWDELHI_WIND NEWDELHI_PRES NEWDELHI_CI NEWDELHI_DP NEWDELHI_POCI REUNION_LAT REUNION_LON REUNION_TYPE REUNION_WIND REUNION_PRES REUNION_TNUM REUNION_CI REUNION_RMW REUNION_R34_NE REUNION_R34_SE REUNION_R34_SW REUNION_R34_NW REUNION_R50_NE REUNION_R50_SE REUNION_R50_SW REUNION_R50_NW REUNION_R64_NE REUNION_R64_SE REUNION_R64_SW REUNION_R64_NW BOM_LAT BOM_LON BOM_TYPE BOM_WIND BOM_PRES BOM_TNUM BOM_CI BOM_RMW BOM_R34_NE BOM_R34_SE BOM_R34_SW BOM_R34_NW BOM_R50_NE BOM_R50_SE BOM_R50_SW BOM_R50_NW BOM_R64_NE BOM_R64_SE BOM_R64_SW BOM_R64_NW BOM_ROCI BOM_POCI BOM_EYE BOM_POS_METHOD BOM_PRES_METHOD NADI_LAT NADI_LON NADI_CAT NADI_WIND NADI_PRES WELLINGTON_LAT WELLINGTON_LON WELLINGTON_WIND WELLINGTON_PRES DS824_LAT DS824_LON DS824_STAGE DS824_WIND DS824_PRES TD9636_LAT TD9636_LON TD9636_STAGE TD9636_WIND TD9636_PRES TD9635_LAT TD9635_LON TD9635_WIND TD9635_PRES TD9635_ROCI NEUMANN_LAT NEUMANN_LON NEUMANN_CLASS NEUMANN_WIND NEUMANN_PRES MLC_LAT MLC_LON MLC_CLASS MLC_WIND MLC_PRES USA_GUST BOM_GUST BOM_GUST_PER REUNION_GUST REUNION_GUST_PER USA_SEAHGT USA_SEARAD_NE USA_SEARAD_SE USA_SEARAD_SW USA_SEARAD_NW STORM_SPEED STORM_DIR
1906169N19086 1906 20 NI BB NOT_NAMED 1906-06-18 00:00:00 TS 19.2000 85.9000 main 67 49 _________O____ -1 19.2000 85.9000 TC 34 6 275
1906169N19086 1906 20 NI BB NOT_NAMED 1906-06-18 03:00:00 TS 19.2235 85.5917 main 49 22 _________PO___ -1 19.2353 85.4375 TC 33 19.2000 85.9000 2 7 277
1906169N19086 1906 20 NI BB NOT_NAMED 1906-06-18 06:00:00 TS 19.2833 85.1936 main 22 0 _________OP___ -1 19.3000 85.0000 TC 32 19.2583 85.4840 2 8 282
1906169N19086 1906 20 NI BB NOT_NAMED 1906-06-18 09:00:00 TS 19.3826 84.7989 main 0 0 _________PP___ -1 19.4198 84.5999 TC 31 19.3330 85.0643 2 8 288
1906169N19086 1906 20 NI BB NOT_NAMED 1906-06-18 12:00:00 TS 19.5206 84.4188 main 0 0 _________OP___ -1 19.6000 84.2000 TC 30 19.4411 84.6376 2 8 293
1906169N19086 1906 20 NI BB NOT_NAMED 1906-06-18 15:00:00 TS 19.7175 83.9750 main 0 0 _________PO___ -1 19.8350 83.7500 TC 30 19.6000 84.2000 1 10 298
1906169N19086 1906 20 NI BB NOT_NAMED 1906-06-18 18:00:00 TS 19.9596 83.5256 main 0 0 _________OP___ -1 20.1000 83.3000 TC 30 19.8191 83.7513 1 10 301
1906169N19086 1906 20 NI BB NOT_NAMED 1906-06-18 21:00:00 TS 20.2213 83.0917 main 0 0 _________PP___ -1 20.3649 82.8775 TC 30 20.0777 83.3059 1 9 303
1906169N19086 1906 20 NI BB NOT_NAMED 1906-06-19 00:00:00 TS 20.4737 82.6912 main 0 0 _________OP___ -1 20.6000 82.5000 TC 30 20.3473 82.8825 1 8 303
1906169N19086 1906 20 NI BB NOT_NAMED 1906-06-19 03:00:00 TS 20.6787 82.3386 main 0 0 _________PO___ -1 20.7574 82.1773 TC 30 20.6000 82.5000 1 7 301
1906169N19086 1906 20 NI BB NOT_NAMED 1906-06-19 06:00:00 TS 20.8460 82.0365 main 0 0 _________OP___ -1 20.9000 81.9000 TC 30 20.7920 82.1731 1 6 303
1906169N19086 1906 20 NI BB NOT_NAMED 1906-06-19 09:00:00 TS 21.0284 81.7621 main 0 0 _________PP___ -1 21.0925 81.6350 TC 30 20.9644 81.8892 1 6 307
1906169N19086 1906 20 NI BB NOT_NAMED 1906-06-19 12:00:00 TS 21.2148 81.5179 main 0 0 _________OP___ -1 21.3000 81.4000 TC 30 21.1296 81.6357 1 6 311
1906169N19086 1906 20 NI BB NOT_NAMED 1906-06-19 15:00:00 TS 21.4000 81.2999 main 0 0 _________PO___ -1 21.4999 81.1999 TC 30 21.3000 81.4000 1 5 314
1906169N19086 1906 20 NI BB NOT_NAMED 1906-06-19 18:00:00 TS 21.5921 81.0962 main 0 0 _________OP___ -1 21.7000 81.0000 TC 30 21.4841 81.1924 1 5 315
1906169N19086 1906 20 NI BB NOT_NAMED 1906-06-19 21:00:00 TS 21.7845 80.8869 main 0 0 _________PP___ -1 21.8924 80.7798 TC 30 21.6766 80.9939 1 6 313
1906169N19086 1906 20 NI BB NOT_NAMED 1906-06-20 00:00:00 TS 21.9904 80.6368 main 0 0 _________OP___ -1 22.1000 80.5000 TC 30 21.8809 80.7735 1 7 309
1906169N19086 1906 20 NI BB NOT_NAMED 1906-06-20 03:00:00 TS 22.2212 80.3150 main 0 0 _________PO___ -1 22.3425 80.1300 TC 30 22.1000 80.5000 1 8 306
1906169N19086 1906 20 NI BB NOT_NAMED 1906-06-20 06:00:00 TS 22.4763 79.9045 main 0 0 _________OP___ -1 22.6000 79.7000 TC 30 22.3525 80.1089 1 10 303
1906169N19086 1906 20 NI BB NOT_NAMED 1906-06-20 09:00:00 TS 22.7406 79.4469 main 0 0 _________PP___ -1 22.8651 79.2277 TC 30 22.6160 79.6661 1 10 302
1906169N19086 1906 20 NI BB NOT_NAMED 1906-06-20 12:00:00 TS 22.9857 79.0076 main 0 0 _________OP___ -1 23.1000 78.8000 TC 30 22.8713 79.2151 1 8 301
1906169N19086 1906 20 NI BB NOT_NAMED 1906-06-20 15:00:00 TS 23.1824 78.6636 main 0 0 _________PO___ -1 23.2647 78.5272 TC 30 23.1000 78.8000 1 6 304
1906169N19086 1906 20 NI BB NOT_NAMED 1906-06-20 18:00:00 TS 23.3336 78.4527 main 0 0 _________OP___ -1 23.4000 78.3000 TC 30 23.2672 78.6054 1 5 309
1906169N19086 1906 20 NI BB NOT_NAMED 1906-06-20 21:00:00 TS 23.4679 78.2728 main 0 0 _________PP___ -1 23.5264 78.1116 TC 30 23.4094 78.4339 1 6 301
1906169N19086 1906 20 NI AS NOT_NAMED 1906-06-21 00:00:00 TS 23.6236 77.9353 main 0 0 _________OP___ -1 23.7000 77.7000 TC 30 23.5471 78.1706 1 10 293
1906169N19086 1906 20 NI AS NOT_NAMED 1906-06-21 03:00:00 TS 23.8540 77.2605 main 0 0 _________PO___ -1 24.0081 76.8211 TC 30 23.7000 77.7000 1 16 288
1906169N19086 1906 20 NI AS NOT_NAMED 1906-06-21 06:00:00 TS 24.1131 76.2777 main 0 0 _________OP___ -1 24.3000 75.7000 TC 30 23.9262 76.8555 1 19 283
1906169N19086 1906 20 NI AS NOT_NAMED 1906-06-21 09:00:00 TS 24.3016 75.1956 main 0 0 _________PP___ -1 24.4450 74.5921 TC 30 24.1582 75.7992 1 20 279
1906169N19086 1906 20 NI AS NOT_NAMED 1906-06-21 12:00:00 TS 24.4302 74.0714 main 0 0 _________OP___ -1 24.5000 73.5000 TC 30 24.3604 74.6428 1 20 276
1906169N19086 1906 20 NI AS NOT_NAMED 1906-06-21 15:00:00 TS 24.5108 73.0099 main 0 0 _________PO___ -1 24.5216 72.5198 TC 30 24.5000 73.5000 1 19 273
1906169N19086 1906 20 NI AS NOT_NAMED 1906-06-21 18:00:00 TS 24.5218 72.0320 main 0 0 _________OP___ -1 24.5000 71.6000 TC 30 24.5435 72.4640 1 18 269
1906169N19086 1906 20 NI AS NOT_NAMED 1906-06-21 21:00:00 TS 24.4915 71.0537 main 0 0 _________PP___ -1 24.4577 70.6324 TC 30 24.5253 71.4751 1 17 267
1906169N19086 1906 20 NI AS NOT_NAMED 1906-06-22 00:00:00 TS 24.4346 70.1869 main 0 0 _________OP___ -1 24.4000 69.8000 TC 30 24.4692 70.5738 1 14 265
1906169N19086 1906 20 NI AS NOT_NAMED 1906-06-22 03:00:00 TS 24.3746 69.5163 main 0 0 _________PO___ -1 24.3491 69.2326 TC 30 24.4000 69.8000 1 11 264
1906169N19086 1906 20 NI AS NOT_NAMED 1906-06-22 06:00:00 TS 24.3272 68.9838 main 0 0 _________OP___ -1 24.3000 68.8000 TC 30 24.3544 69.1675 1 9 264
1906169N19086 1906 20 NI AS NOT_NAMED 1906-06-22 09:00:00 TS 24.2772 68.4915 main 0 0 _________PP___ -1 24.2500 68.3200 TC 30 24.3043 68.6629 1 8 263
1906169N19086 1906 20 NI AS NOT_NAMED 1906-06-22 12:00:00 TS 24.2261 68.0759 main 0 0 _________OP___ -1 24.2000 67.9000 TC 30 24.2522 68.2518 1 7 262
1906169N19086 1906 20 NI AS NOT_NAMED 1906-06-22 15:00:00 TS 24.1749 67.7388 main 0 0 _________PO___ -1 24.1498 67.5776 TC 30 24.2000 67.9000 1 6 260
1906169N19086 1906 20 NI AS NOT_NAMED 1906-06-22 18:00:00 TS 24.1280 67.4588 main 0 0 _________OP___ -1 24.1000 67.3000 TC 30 24.1489 67.5779 1 5 260
1906169N19086 1906 20 NI AS NOT_NAMED 1906-06-22 21:00:00 TS 24.0794 67.1678 main 20 20 _________PP___ -1 24.0502 67.0074 TC 30 24.0989 67.2747 1 5 260
1906169N19086 1906 20 NI AS NOT_NAMED 1906-06-23 00:00:00 TS 24.0329 66.8894 main 50 50 _________OP___ -1 24.0000 66.7000 TC 30 24.0494 66.9841 1 4 259
1906169N19086 1906 20 NI AS NOT_NAMED 1906-06-23 03:00:00 NR 24.0000 66.7000 main 71 __________O___ -1 TC 24.0000 66.7000 1 4 259

About IBTrACS Database

This database is a web-friendly format of International Best Track Archive for Climate Stewardship (IBTrACS), a global best track data archive curated by NOAA dating back to 1842.

Updated: 2021-11-26